createdAt,value
2019-04-27T00:00:43.361Z,15.93
2019-04-27T00:02:51.505Z,15.85
2019-04-27T00:05:03.267Z,15.35
2019-04-27T00:07:16.992Z,15.25
2019-04-27T00:11:45.571Z,14.23
2019-04-27T00:13:49.662Z,14.68
2019-04-27T00:16:09.787Z,12.90
2019-04-27T00:18:13.993Z,12.58
2019-04-27T00:20:21.440Z,12.18
2019-04-27T00:22:33.324Z,10.25
2019-04-27T00:24:41.406Z,10.18
2019-04-27T00:26:45.528Z,9.30
2019-04-27T00:28:49.685Z,9.60
2019-04-27T00:30:53.795Z,9.03
2019-04-27T00:32:57.701Z,8.80
2019-04-27T00:35:03.541Z,7.95
2019-04-27T00:37:13.461Z,8.35
2019-04-27T00:39:32.939Z,7.67
2019-04-27T00:41:36.975Z,7.50
2019-04-27T00:43:40.785Z,7.10
2019-04-27T00:45:44.733Z,7.72
2019-04-27T00:47:57.394Z,6.30
2019-04-27T00:49:54.956Z,6.78
2019-04-27T00:51:59.023Z,6.97
2019-04-27T00:54:04.595Z,8.00
2019-04-27T00:56:10.102Z,7.75
2019-04-27T00:58:15.614Z,7.60
2019-04-27T01:03:03.925Z,8.35
2019-04-27T01:05:18.728Z,7.95
2019-04-27T01:07:22.800Z,7.90
2019-04-27T01:09:28.120Z,8.20
2019-04-27T01:11:33.300Z,8.20
2019-04-27T01:13:37.412Z,8.28
2019-04-27T01:15:42.940Z,7.90
2019-04-27T01:17:46.810Z,8.23
2019-04-27T01:19:52.223Z,7.42
2019-04-27T01:21:56.132Z,7.00
2019-04-27T01:24:00.022Z,7.97
2019-04-27T01:26:09.734Z,7.30
2019-04-27T01:28:28.963Z,7.20
2019-04-27T01:30:39.112Z,7.08
2019-04-27T01:32:42.969Z,7.03
2019-04-27T01:34:46.996Z,7.00
2019-04-27T01:36:50.850Z,6.83
2019-04-27T01:38:54.802Z,7.47
2019-04-27T01:41:00.600Z,6.62
2019-04-27T01:43:04.457Z,7.35
2019-04-27T01:45:08.762Z,6.90
2019-04-27T01:47:12.677Z,6.97
2019-04-27T01:49:16.786Z,7.20
2019-04-27T01:51:21.103Z,7.40
2019-04-27T01:53:25.163Z,7.62
2019-04-27T01:55:29.837Z,8.33
2019-04-27T01:57:34.046Z,8.80
2019-04-27T01:59:38.697Z,8.65
2019-04-27T02:01:44.826Z,7.65
2019-04-27T02:04:02.761Z,9.33
2019-04-27T02:06:06.609Z,9.58
2019-04-27T02:08:10.537Z,9.30
2019-04-27T02:10:15.933Z,8.73
2019-04-27T02:12:20.019Z,9.33
2019-04-27T02:14:24.131Z,8.78
2019-04-27T02:16:30.350Z,9.00
2019-04-27T02:18:37.526Z,8.70
2019-04-27T02:20:39.723Z,9.00
2019-04-27T02:22:43.744Z,9.28
2019-04-27T02:24:49.224Z,9.53
2019-04-27T02:26:53.378Z,9.68
2019-04-27T02:29:13.897Z,9.73
2019-04-27T02:31:25.479Z,9.05
2019-04-27T02:33:36.953Z,10.53
2019-04-27T02:35:42.073Z,10.08
2019-04-27T02:37:46.045Z,9.25
2019-04-27T02:39:50.254Z,10.28
2019-04-27T02:41:54.222Z,9.78
2019-04-27T02:44:01.646Z,10.00
2019-04-27T02:46:05.290Z,9.83
2019-04-27T02:48:09.884Z,10.35
2019-04-27T02:50:14.041Z,9.88
2019-04-27T02:52:30.074Z,9.68
2019-04-27T02:54:34.345Z,9.93
2019-04-27T02:56:40.550Z,10.43
2019-04-27T02:58:43.896Z,11.05
2019-04-27T03:00:49.952Z,10.53
2019-04-27T03:02:55.085Z,11.05
2019-04-27T03:05:00.605Z,10.15
2019-04-27T03:07:04.741Z,10.85
2019-04-27T03:09:10.457Z,10.75
2019-04-27T03:11:14.600Z,9.98
2019-04-27T03:13:20.296Z,10.60
2019-04-27T03:15:25.793Z,11.40
2019-04-27T03:17:31.342Z,11.28
2019-04-27T03:19:50.082Z,11.33
2019-04-27T03:21:56.196Z,11.60
2019-04-27T03:24:00.371Z,12.15
2019-04-27T03:26:15.076Z,13.45
2019-04-27T03:28:20.083Z,11.97
2019-04-27T03:30:24.444Z,13.25
2019-04-27T03:32:31.324Z,12.63
2019-04-27T03:34:33.845Z,11.83
2019-04-27T03:36:39.579Z,11.90
2019-04-27T03:38:43.619Z,12.82
2019-04-27T03:40:50.739Z,12.73
2019-04-27T03:42:54.631Z,12.15
2019-04-27T03:45:00.619Z,13.60
2019-04-27T03:47:04.405Z,13.38
2019-04-27T03:49:09.759Z,13.55
2019-04-27T03:51:21.413Z,12.95
2019-04-27T03:53:33.018Z,13.62
2019-04-27T03:55:42.687Z,14.15
2019-04-27T03:57:49.832Z,13.90
2019-04-27T04:00:01.279Z,14.63
2019-04-27T04:02:05.193Z,15.23
2019-04-27T04:04:10.441Z,15.20
2019-04-27T04:06:14.564Z,13.53
2019-04-27T04:08:19.301Z,13.83
2019-04-27T04:10:24.635Z,14.47
2019-04-27T04:12:36.058Z,14.15
2019-04-27T04:14:42.450Z,13.60
2019-04-27T04:17:02.667Z,13.43
2019-04-27T04:19:09.970Z,14.55
2019-04-27T04:21:14.062Z,13.58
2019-04-27T04:23:20.449Z,13.10
2019-04-27T04:25:23.497Z,13.53
2019-04-27T04:27:29.722Z,13.00
2019-04-27T04:29:32.898Z,14.70
2019-04-27T04:31:36.830Z,15.13
2019-04-27T04:33:40.871Z,15.88
2019-04-27T04:35:44.695Z,15.80
2019-04-27T04:37:52.730Z,16.45
2019-04-27T04:39:55.818Z,16.50
2019-04-27T04:42:01.408Z,16.85
2019-04-27T04:44:12.904Z,15.60
2019-04-27T04:46:30.296Z,18.65
2019-04-27T04:48:34.218Z,18.20
2019-04-27T04:50:39.780Z,16.52
2019-04-27T04:52:43.977Z,16.52
2019-04-27T04:54:49.789Z,15.58
2019-04-27T04:56:53.734Z,17.32
2019-04-27T04:58:59.823Z,17.07
2019-04-27T05:01:03.239Z,15.45
2019-04-27T05:03:09.186Z,15.78
2019-04-27T05:05:13.391Z,15.85
2019-04-27T05:07:19.285Z,17.15
2019-04-27T05:09:22.997Z,16.07
2019-04-27T05:11:27.027Z,15.85
2019-04-27T05:13:31.115Z,16.23
2019-04-27T05:15:34.979Z,15.90
2019-04-27T05:17:39.912Z,15.48
2019-04-27T05:19:44.879Z,16.30
2019-04-27T05:21:49.216Z,15.70
2019-04-27T05:23:53.303Z,14.80
2019-04-27T05:25:57.138Z,16.90
2019-04-27T05:28:01.118Z,15.03
2019-04-27T05:30:05.899Z,14.68
2019-04-27T05:32:09.847Z,13.30
2019-04-27T05:34:13.701Z,16.17
2019-04-27T05:36:19.150Z,15.08
2019-04-27T05:38:23.759Z,15.53
2019-04-27T05:40:29.137Z,17.35
2019-04-27T05:42:33.241Z,15.58
2019-04-27T05:44:59.087Z,15.68
2019-04-27T05:47:09.965Z,14.98
2019-04-27T05:49:13.755Z,14.60
2019-04-27T05:51:19.427Z,16.05
2019-04-27T05:53:23.152Z,16.97
2019-04-27T05:55:29.086Z,18.32
2019-04-27T05:57:32.706Z,14.20
2019-04-27T05:59:36.643Z,14.10
2019-04-27T06:01:40.618Z,16.00
2019-04-27T06:03:44.571Z,15.85
2019-04-27T06:05:48.948Z,15.72
2019-04-27T06:07:53.201Z,14.07
2019-04-27T06:09:57.154Z,14.75
2019-04-27T06:12:00.979Z,14.03
2019-04-27T06:14:05.221Z,13.68
2019-04-27T06:16:09.550Z,13.32
2019-04-27T06:18:13.547Z,12.40
2019-04-27T06:20:18.844Z,12.63
2019-04-27T06:22:22.903Z,12.75
2019-04-27T06:24:26.751Z,12.47
2019-04-27T06:26:30.714Z,13.08
2019-04-27T06:28:34.577Z,15.08
2019-04-27T06:30:39.174Z,12.80
2019-04-27T06:32:43.205Z,14.63
2019-04-27T06:34:48.821Z,15.30
2019-04-27T06:36:52.799Z,13.38
2019-04-27T06:38:58.798Z,15.83
2019-04-27T06:41:02.655Z,14.00
2019-04-27T06:43:08.415Z,14.25
2019-04-27T06:45:12.423Z,15.18
2019-04-27T06:47:16.340Z,14.68
2019-04-27T06:49:20.225Z,14.23
2019-04-27T06:51:24.083Z,14.83
2019-04-27T06:53:29.150Z,14.55
2019-04-27T06:55:33.291Z,15.95
2019-04-27T06:57:37.189Z,15.43
2019-04-27T06:59:41.046Z,14.70
2019-04-27T07:01:44.966Z,16.05
2019-04-27T07:03:48.858Z,16.87
2019-04-27T07:05:52.746Z,15.83
2019-04-27T07:07:56.679Z,15.18
2019-04-27T07:10:00.627Z,15.00
2019-04-27T07:12:04.471Z,15.00
2019-04-27T07:14:09.554Z,16.85
2019-04-27T07:16:13.968Z,16.65
2019-04-27T07:18:18.680Z,13.53
2019-04-27T07:20:22.888Z,15.20
2019-04-27T07:22:26.703Z,16.55
2019-04-27T07:24:30.801Z,15.93
2019-04-27T07:26:34.657Z,14.13
2019-04-27T07:28:39.249Z,14.68
2019-04-27T07:30:44.042Z,14.98
2019-04-27T07:32:48.859Z,14.38
2019-04-27T07:34:55.231Z,15.23
2019-04-27T07:36:59.731Z,14.60
2019-04-27T07:39:05.722Z,14.60
2019-04-27T07:41:09.703Z,16.93
2019-04-27T07:43:30.245Z,16.42
2019-04-27T07:45:35.863Z,16.65
2019-04-27T07:47:41.404Z,16.48
2019-04-27T07:49:46.439Z,15.68
2019-04-27T07:51:50.395Z,15.80
2019-04-27T07:53:54.351Z,14.90
2019-04-27T07:55:59.255Z,16.02
2019-04-27T07:58:05.113Z,15.38
2019-04-27T08:00:09.651Z,14.95
2019-04-27T08:02:13.547Z,16.27
2019-04-27T08:04:18.810Z,14.58
2019-04-27T08:06:22.798Z,15.48
2019-04-27T08:08:28.545Z,14.45
2019-04-27T08:10:32.658Z,13.28
2019-04-27T08:12:38.531Z,13.78
2019-04-27T08:14:42.191Z,12.15
2019-04-27T08:16:46.075Z,12.30
2019-04-27T08:18:51.685Z,14.05
2019-04-27T08:21:08.957Z,12.65
2019-04-27T08:23:12.911Z,12.93
2019-04-27T08:25:16.824Z,12.10
2019-04-27T08:27:39.397Z,12.45
2019-04-27T08:29:45.168Z,11.57
2019-04-27T08:31:53.634Z,12.78
2019-04-27T08:33:58.276Z,12.07
2019-04-27T08:36:03.902Z,11.60
2019-04-27T08:38:09.055Z,12.55
2019-04-27T08:40:13.927Z,12.73
2019-04-27T08:42:19.410Z,12.68
2019-04-27T08:44:23.747Z,11.22
2019-04-27T08:46:28.655Z,11.03
2019-04-27T08:48:36.876Z,11.43
2019-04-27T08:50:41.831Z,11.53
2019-04-27T08:52:44.747Z,10.98
2019-04-27T08:54:50.848Z,12.78
2019-04-27T08:56:54.932Z,12.55
2019-04-27T08:58:59.531Z,12.50
2019-04-27T09:01:03.638Z,11.95
2019-04-27T09:03:09.334Z,11.70
2019-04-27T09:05:13.586Z,11.83
2019-04-27T09:07:29.462Z,14.00
2019-04-27T09:09:42.313Z,13.48
2019-04-27T09:11:49.382Z,12.00
2019-04-27T09:13:58.930Z,13.78
2019-04-27T09:16:13.343Z,12.73
2019-04-27T09:18:19.205Z,14.33
2019-04-27T09:20:24.753Z,13.15
2019-04-27T09:22:28.985Z,14.45
2019-04-27T09:24:33.056Z,14.13
2019-04-27T09:26:36.983Z,15.03
2019-04-27T09:28:40.986Z,14.30
2019-04-27T09:30:44.891Z,13.58
2019-04-27T09:32:48.778Z,14.28
2019-04-27T09:34:52.640Z,13.32
2019-04-27T09:36:56.914Z,14.43
2019-04-27T09:39:00.823Z,15.45
2019-04-27T09:41:07.024Z,14.20
2019-04-27T09:43:10.426Z,14.80
2019-04-27T09:45:15.941Z,15.10
2019-04-27T09:47:19.879Z,14.83
2019-04-27T09:49:23.828Z,15.43
2019-04-27T09:51:27.730Z,16.40
2019-04-27T09:53:31.604Z,15.23
2019-04-27T09:55:36.883Z,16.05
2019-04-27T09:57:40.974Z,15.03
2019-04-27T09:59:46.054Z,17.23
2019-04-27T10:01:50.163Z,17.35
2019-04-27T10:03:54.077Z,16.93
2019-04-27T10:05:57.979Z,15.60
2019-04-27T10:08:01.871Z,17.45
2019-04-27T10:10:07.782Z,17.80
2019-04-27T10:12:13.646Z,18.45
2019-04-27T10:14:17.347Z,18.55
2019-04-27T10:16:21.200Z,18.42
2019-04-27T10:18:26.563Z,17.50
2019-04-27T10:20:30.679Z,18.45
2019-04-27T10:22:41.054Z,19.05
2019-04-27T10:24:40.135Z,18.32
2019-04-27T10:26:44.319Z,20.65
2019-04-27T10:28:48.265Z,20.62
2019-04-27T10:30:55.621Z,19.05
2019-04-27T10:32:57.913Z,19.73
2019-04-27T10:35:01.767Z,18.70
2019-04-27T10:37:06.148Z,19.75
2019-04-27T10:39:13.332Z,18.75
2019-04-27T10:41:16.966Z,18.90
2019-04-27T10:43:20.928Z,19.55
2019-04-27T10:45:24.865Z,19.20
2019-04-27T10:47:28.701Z,19.75
2019-04-27T10:49:32.612Z,20.12
2019-04-27T10:51:36.753Z,19.37
2019-04-27T10:53:40.625Z,18.17
2019-04-27T10:55:46.224Z,18.80
2019-04-27T10:57:50.113Z,17.87
2019-04-27T10:59:53.959Z,19.70
2019-04-27T11:01:57.827Z,17.85
2019-04-27T11:04:03.302Z,18.82
2019-04-27T11:06:08.719Z,18.60
2019-04-27T11:08:12.576Z,17.95
2019-04-27T11:10:16.657Z,17.65
2019-04-27T11:12:20.537Z,18.00
2019-04-27T11:14:26.068Z,18.80
2019-04-27T11:16:30.273Z,17.73
2019-04-27T11:18:35.994Z,17.30
2019-04-27T11:20:40.132Z,17.45
2019-04-27T11:22:44.249Z,19.15
2019-04-27T11:24:48.191Z,17.45
2019-04-27T11:26:52.157Z,18.00
2019-04-27T11:28:56.267Z,19.05
2019-04-27T11:31:00.374Z,18.90
2019-04-27T11:33:06.124Z,18.80
2019-04-27T11:35:20.883Z,17.82
2019-04-27T11:37:26.535Z,18.75
2019-04-27T11:39:30.643Z,18.62
2019-04-27T11:41:35.877Z,19.45
2019-04-27T11:43:39.734Z,18.37
2019-04-27T11:45:43.588Z,17.23
2019-04-27T11:47:47.597Z,17.40
2019-04-27T11:49:52.878Z,17.70
2019-04-27T11:51:56.843Z,17.23
2019-04-27T11:54:00.952Z,16.85
2019-04-27T11:56:04.883Z,17.32
2019-04-27T11:58:08.855Z,17.27
2019-04-27T12:00:16.583Z,18.17
2019-04-27T12:02:20.547Z,17.57
2019-04-27T12:04:26.184Z,16.85
2019-04-27T12:06:30.401Z,16.57
2019-04-27T12:08:34.322Z,17.77
2019-04-27T12:10:38.226Z,17.30
2019-04-27T12:12:42.227Z,16.57
2019-04-27T12:14:47.461Z,16.40
2019-04-27T12:16:51.479Z,18.27
2019-04-27T12:18:56.368Z,17.62
2019-04-27T12:21:00.351Z,17.27
2019-04-27T12:23:06.354Z,16.90
2019-04-27T12:25:10.598Z,18.45
2019-04-27T12:27:29.290Z,19.30
2019-04-27T12:29:51.577Z,19.62
2019-04-27T12:31:56.257Z,17.95
2019-04-27T12:34:00.259Z,19.52
2019-04-27T12:36:04.513Z,17.70
2019-04-27T12:38:08.525Z,17.98
2019-04-27T12:40:12.516Z,17.77
2019-04-27T12:42:16.512Z,17.48
2019-04-27T12:44:20.451Z,17.07
2019-04-27T12:46:24.281Z,17.17
2019-04-27T12:48:28.203Z,15.90
2019-04-27T12:50:32.080Z,15.93
2019-04-27T12:52:36.103Z,16.23
2019-04-27T12:54:41.615Z,15.53
2019-04-27T12:56:53.162Z,15.25
2019-04-27T12:58:58.735Z,15.00
2019-04-27T13:01:07.500Z,13.43
2019-04-27T13:03:11.553Z,14.23
2019-04-27T13:05:15.807Z,13.78
2019-04-27T13:07:19.885Z,14.65
2019-04-27T13:09:25.564Z,13.60
2019-04-27T13:11:29.343Z,14.55
2019-04-27T13:13:33.298Z,13.55
2019-04-27T13:15:37.498Z,13.28
2019-04-27T13:17:41.410Z,13.50
2019-04-27T13:19:45.667Z,13.30
2019-04-27T13:21:49.885Z,12.25
2019-04-27T13:24:02.112Z,12.03
2019-04-27T13:25:59.267Z,12.20
2019-04-27T13:28:03.229Z,12.47
2019-04-27T13:30:08.978Z,10.60
2019-04-27T13:32:12.996Z,11.63
2019-04-27T13:34:19.955Z,11.93
2019-04-27T13:36:23.982Z,11.33
2019-04-27T13:38:27.922Z,11.00
2019-04-27T13:40:35.570Z,11.18
2019-04-27T13:42:49.726Z,10.90
2019-04-27T13:44:53.630Z,10.55
2019-04-27T13:47:20.020Z,10.38
2019-04-27T13:49:31.546Z,9.63
2019-04-27T13:51:37.192Z,10.48
2019-04-27T13:53:41.058Z,10.15
2019-04-27T13:55:46.435Z,10.15
2019-04-27T13:57:50.741Z,9.78
2019-04-27T13:59:54.654Z,9.83
2019-04-27T14:01:58.516Z,11.45
2019-04-27T14:04:02.645Z,9.60
2019-04-27T14:06:08.082Z,10.72
2019-04-27T14:08:12.223Z,10.63
2019-04-27T14:10:17.946Z,9.70
2019-04-27T14:12:22.089Z,9.93
2019-04-27T14:14:25.990Z,10.40
2019-04-27T14:16:30.098Z,9.75
2019-04-27T14:18:34.006Z,10.63
2019-04-27T14:20:38.957Z,9.58
2019-04-27T14:22:43.034Z,10.05
2019-04-27T14:24:48.546Z,10.55
2019-04-27T14:26:52.475Z,10.85
2019-04-27T14:28:58.289Z,11.68
2019-04-27T14:31:01.895Z,9.25
2019-04-27T14:33:05.844Z,9.40
2019-04-27T14:35:09.956Z,8.40
2019-04-27T14:37:14.268Z,8.80
2019-04-27T14:39:18.603Z,9.03
2019-04-27T14:41:22.637Z,7.65
2019-04-27T14:43:28.516Z,7.55
2019-04-27T14:45:32.170Z,6.50
2019-04-27T14:47:38.418Z,7.55
2019-04-27T14:49:41.898Z,7.53
2019-04-27T14:51:45.777Z,9.73
2019-04-27T14:53:49.623Z,9.18
2019-04-27T14:55:53.552Z,9.68
2019-04-27T14:57:58.601Z,10.63
2019-04-27T15:00:02.679Z,8.18
2019-04-27T15:02:08.579Z,6.35
2019-04-27T15:04:12.125Z,6.35
2019-04-27T15:06:16.009Z,6.10
2019-04-27T15:08:19.840Z,7.80
2019-04-27T15:10:28.573Z,8.18
2019-04-27T15:12:30.591Z,6.95
2019-04-27T15:14:34.986Z,5.85
2019-04-27T15:16:42.631Z,6.17
2019-04-27T15:18:49.975Z,6.78
2019-04-27T15:20:54.018Z,6.40
2019-04-27T15:22:59.666Z,6.30
2019-04-27T15:25:11.818Z,6.05
2019-04-27T15:27:12.158Z,5.78
2019-04-27T15:29:20.605Z,5.75
2019-04-27T15:31:26.973Z,5.60
2019-04-27T15:33:51.430Z,6.05
2019-04-27T15:35:54.974Z,5.75
2019-04-27T15:38:00.453Z,6.10
2019-04-27T15:40:12.752Z,5.90
2019-04-27T15:42:29.572Z,6.42
2019-04-27T15:44:36.435Z,5.65
2019-04-27T15:46:39.328Z,6.90
2019-04-27T15:48:43.218Z,5.92
2019-04-27T15:50:47.226Z,5.95
2019-04-27T15:52:51.021Z,5.45
2019-04-27T15:54:55.459Z,6.00
2019-04-27T15:56:59.347Z,8.10
2019-04-27T15:59:03.216Z,7.03
2019-04-27T16:01:09.882Z,6.80
2019-04-27T16:03:13.413Z,6.12
2019-04-27T16:05:19.144Z,5.83
2019-04-27T16:07:25.232Z,6.00
2019-04-27T16:09:28.839Z,6.20
2019-04-27T16:11:32.680Z,6.78
2019-04-27T16:13:37.921Z,7.90
2019-04-27T16:15:42.303Z,6.75
2019-04-27T16:17:53.002Z,8.23
2019-04-27T16:19:51.842Z,6.65
2019-04-27T16:21:59.165Z,6.28
2019-04-27T16:24:03.386Z,6.37
2019-04-27T16:26:10.999Z,7.40
2019-04-27T16:28:13.460Z,9.55
2019-04-27T16:30:20.487Z,9.50
2019-04-27T16:32:23.674Z,7.10
2019-04-27T16:34:28.674Z,6.40
2019-04-27T16:36:32.920Z,6.47
2019-04-27T16:38:38.838Z,5.87
2019-04-27T16:40:42.911Z,6.22
2019-04-27T16:42:50.600Z,6.80
2019-04-27T16:44:53.255Z,6.97
2019-04-27T16:46:58.594Z,6.67
2019-04-27T16:49:06.498Z,6.72
2019-04-27T16:51:08.743Z,6.47
2019-04-27T16:53:13.846Z,6.90
2019-04-27T16:55:19.775Z,6.92
2019-04-27T16:57:23.365Z,7.55
2019-04-27T16:59:40.617Z,7.95
2019-04-27T17:01:32.842Z,7.35
2019-04-27T17:03:36.797Z,6.92
2019-04-27T17:05:40.907Z,8.83
2019-04-27T17:07:44.861Z,8.58
2019-04-27T17:09:49.465Z,9.00
2019-04-27T17:11:55.295Z,8.83
2019-04-27T17:14:08.162Z,10.05
2019-04-27T17:16:19.993Z,10.70
2019-04-27T17:18:28.813Z,10.45
2019-04-27T17:20:33.840Z,10.78
2019-04-27T17:22:38.818Z,11.08
2019-04-27T17:24:46.788Z,11.15
2019-04-27T17:26:48.935Z,10.40
2019-04-27T17:28:54.481Z,13.13
2019-04-27T17:31:00.059Z,11.55
2019-04-27T17:33:10.909Z,14.38
2019-04-27T17:35:14.762Z,13.32
2019-04-27T17:37:16.913Z,14.30
2019-04-27T17:39:23.380Z,13.03
2019-04-27T17:41:28.165Z,13.22
2019-04-27T17:43:31.946Z,13.30
2019-04-27T17:45:37.606Z,13.55
2019-04-27T17:47:41.640Z,15.40
2019-04-27T17:49:45.618Z,17.00
2019-04-27T17:51:49.606Z,16.57
2019-04-27T17:54:02.937Z,17.05
2019-04-27T17:56:05.988Z,16.05
2019-04-27T17:58:10.347Z,15.90
2019-04-27T18:00:15.088Z,15.83
2019-04-27T18:02:18.867Z,16.70
2019-04-27T18:04:22.860Z,16.55
2019-04-27T18:06:29.563Z,17.07
2019-04-27T18:08:32.274Z,18.00
2019-04-27T18:10:36.446Z,16.27
2019-04-27T18:12:40.431Z,17.32
2019-04-27T18:14:44.561Z,19.27
2019-04-27T18:16:48.773Z,16.82
2019-04-27T18:19:00.079Z,15.60
2019-04-27T18:20:59.860Z,14.78
2019-04-27T18:23:10.595Z,24.90
2019-04-27T18:25:11.459Z,28.98
2019-04-27T18:27:33.507Z,28.15
2019-04-27T18:29:41.069Z,21.52
2019-04-27T18:31:46.441Z,21.48
2019-04-27T18:33:50.683Z,20.62
2019-04-27T18:35:58.931Z,18.62
2019-04-27T18:38:01.694Z,18.60
2019-04-27T18:40:09.300Z,23.30
2019-04-27T18:42:13.116Z,23.98
2019-04-27T18:44:19.117Z,24.77
2019-04-27T18:46:24.745Z,23.60
2019-04-27T18:48:33.431Z,24.20
2019-04-27T18:50:43.456Z,23.55
2019-04-27T18:52:50.202Z,23.45
2019-04-27T18:54:54.180Z,24.37
2019-04-27T18:57:02.845Z,22.62
2019-04-27T18:59:05.158Z,22.50
2019-04-27T19:01:09.018Z,24.23
2019-04-27T19:03:12.972Z,22.13
2019-04-27T19:05:18.983Z,23.57
2019-04-27T19:07:22.447Z,23.18
2019-04-27T19:09:26.359Z,23.62
2019-04-27T19:11:30.416Z,26.30
2019-04-27T19:13:34.424Z,24.32
2019-04-27T19:15:38.664Z,26.40
2019-04-27T19:17:42.951Z,25.52
2019-04-27T19:19:47.063Z,24.45
2019-04-27T19:21:50.898Z,24.57
2019-04-27T19:23:54.762Z,22.95
2019-04-27T19:26:00.288Z,22.07
2019-04-27T19:28:08.673Z,20.92
2019-04-27T19:30:29.072Z,21.82
2019-04-27T19:32:32.963Z,20.60
2019-04-27T19:34:38.743Z,21.45
2019-04-27T19:36:42.574Z,19.73
2019-04-27T19:38:47.868Z,23.30
2019-04-27T19:40:52.226Z,22.25
2019-04-27T19:42:56.176Z,22.73
2019-04-27T19:45:00.450Z,21.57
2019-04-27T19:47:05.893Z,22.05
2019-04-27T19:49:10.100Z,21.55
2019-04-27T19:51:14.107Z,22.17
2019-04-27T19:53:19.445Z,20.85
2019-04-27T19:55:23.475Z,21.97
2019-04-27T19:57:34.631Z,21.97
2019-04-27T19:59:34.648Z,22.10
2019-04-27T20:01:40.202Z,20.80
2019-04-27T20:03:48.368Z,21.35
2019-04-27T20:05:52.268Z,22.27
2019-04-27T20:07:56.196Z,20.20
2019-04-27T20:10:00.541Z,21.80
2019-04-27T20:12:05.218Z,22.75
2019-04-27T20:14:11.057Z,22.00
2019-04-27T20:16:15.290Z,22.55
2019-04-27T20:18:20.929Z,21.55
2019-04-27T20:20:24.918Z,24.27
2019-04-27T20:22:28.807Z,22.93
2019-04-27T20:24:33.555Z,21.17
2019-04-27T20:26:37.608Z,25.43
2019-04-27T20:28:41.497Z,22.73
2019-04-27T20:30:45.363Z,24.57
2019-04-27T20:32:51.030Z,25.27
2019-04-27T20:34:54.913Z,25.27
2019-04-27T20:36:58.965Z,25.72
2019-04-27T20:39:05.709Z,25.45
2019-04-27T20:41:08.618Z,24.18
2019-04-27T20:43:12.470Z,24.55
2019-04-27T20:45:16.496Z,25.48
2019-04-27T20:47:20.686Z,26.62
2019-04-27T20:49:24.634Z,26.73
2019-04-27T20:51:50.422Z,25.57
2019-04-27T20:53:53.936Z,26.62
2019-04-27T20:55:57.798Z,26.25
2019-04-27T20:58:02.798Z,26.45
2019-04-27T21:00:07.687Z,27.30
2019-04-27T21:02:33.581Z,24.65
2019-04-27T21:04:41.964Z,25.68
2019-04-27T21:06:47.606Z,24.80
2019-04-27T21:08:51.570Z,26.40
2019-04-27T21:11:01.561Z,26.80
2019-04-27T21:13:05.734Z,26.57
2019-04-27T21:15:12.749Z,26.80
2019-04-27T21:17:22.172Z,27.20
2019-04-27T21:19:26.104Z,27.37
2019-04-27T21:21:30.086Z,27.22
2019-04-27T21:23:34.003Z,27.37
2019-04-27T21:25:38.033Z,26.80
2019-04-27T21:27:42.022Z,27.37
2019-04-27T21:29:45.928Z,26.87
2019-04-27T21:31:51.896Z,27.42
2019-04-27T21:33:55.702Z,26.50
2019-04-27T21:36:01.330Z,25.80
2019-04-27T21:38:05.438Z,26.45
2019-04-27T21:40:21.304Z,25.52
2019-04-27T21:42:25.352Z,26.25
2019-04-27T21:44:29.286Z,26.87
2019-04-27T21:46:34.825Z,27.05
2019-04-27T21:48:38.863Z,27.20
2019-04-27T21:50:44.162Z,27.10
2019-04-27T21:52:58.678Z,27.70
2019-04-27T21:55:02.686Z,27.13
2019-04-27T21:57:06.530Z,26.50
2019-04-27T21:59:11.114Z,25.82
2019-04-27T22:01:26.352Z,27.00
2019-04-27T22:03:31.604Z,28.42
2019-04-27T22:05:35.624Z,27.93
2019-04-27T22:07:39.636Z,27.90
2019-04-27T22:09:43.521Z,27.85
2019-04-27T22:11:47.399Z,29.57
2019-04-27T22:13:51.659Z,28.90
2019-04-27T22:15:55.611Z,26.93
2019-04-27T22:18:00.696Z,29.23
2019-04-27T22:20:07.346Z,29.95
2019-04-27T22:22:12.808Z,28.23
2019-04-27T22:24:18.454Z,29.48
2019-04-27T22:26:22.461Z,29.42
2019-04-27T22:28:26.394Z,30.90
2019-04-27T22:30:31.227Z,30.05
2019-04-27T22:32:35.190Z,31.12
2019-04-27T22:34:39.106Z,29.77
2019-04-27T22:36:43.116Z,29.65
2019-04-27T22:38:47.071Z,31.25
2019-04-27T22:41:02.145Z,30.45
2019-04-27T22:43:11.871Z,30.95
2019-04-27T22:45:17.346Z,31.48
2019-04-27T22:47:21.610Z,32.42
2019-04-27T22:49:25.787Z,29.55
2019-04-27T22:51:31.264Z,31.52
2019-04-27T22:53:35.059Z,31.62
2019-04-27T22:55:41.201Z,29.72
2019-04-27T22:57:46.756Z,29.60
2019-04-27T22:59:55.222Z,28.98
2019-04-27T23:02:01.453Z,30.70
2019-04-27T23:04:09.844Z,29.07
2019-04-27T23:06:13.869Z,32.28
2019-04-27T23:08:17.829Z,29.82
2019-04-27T23:10:21.646Z,30.48
2019-04-27T23:12:25.561Z,32.00
2019-04-27T23:14:31.234Z,31.85
2019-04-27T23:16:36.564Z,31.82
2019-04-27T23:18:41.359Z,31.82
2019-04-27T23:20:45.375Z,30.70
2019-04-27T23:22:49.295Z,31.25
2019-04-27T23:24:53.211Z,30.92
2019-04-27T23:26:57.289Z,31.90
2019-04-27T23:29:13.130Z,31.45
2019-04-27T23:31:23.284Z,30.23
2019-04-27T23:33:27.206Z,31.33
2019-04-27T23:35:32.764Z,31.35
2019-04-27T23:37:36.759Z,31.12
2019-04-27T23:39:40.686Z,30.12
2019-04-27T23:41:44.607Z,32.25
2019-04-27T23:43:48.705Z,30.02
2019-04-27T23:45:52.710Z,31.40
2019-04-27T23:47:56.717Z,31.77
2019-04-27T23:50:00.919Z,30.05
2019-04-27T23:52:09.590Z,30.52
2019-04-27T23:54:13.559Z,29.80
2019-04-27T23:56:17.426Z,31.65
2019-04-27T23:58:21.402Z,30.15
